Time;durP1;ratioP1;P1;durP2;ratioP2;P2;SDS_P1;SDS_P2;PMS_P1;PMS_P2;Temp;Humidity;BMP_temperature;BMP_pressure;BME280_temperature;BME280_humidity;BME280_pressure;Samples;Min_cycle;Max_cycle;Signal;HPM_P1;HPM_P2
2020/12/20 00:01:43;;;;;;;14.52;1.88;;;10.50;87.20;;;;;;5093956;28;20093;-77
2020/12/20 00:04:13;;;;;;;13.25;1.38;;;10.20;87.30;;;;;;5094652;28;20090;-76
2020/12/20 00:06:41;;;;;;;15.75;1.35;;;10.30;87.20;;;;;;5094688;28;20114;-77
2020/12/20 00:09:15;;;;;;;11.65;1.20;;;10.20;87.30;;;;;;5094934;28;20067;-77
2020/12/20 00:11:42;;;;;;;15.70;1.60;;;10.10;86.50;;;;;;5094840;28;20032;-77
2020/12/20 00:14:27;;;;;;;12.18;1.25;;;10.00;87.20;;;;;;5093171;28;20147;-77
2020/12/20 00:17:04;;;;;;;16.02;1.33;;;10.20;87.00;;;;;;5094906;28;20043;-76
2020/12/20 00:19:31;;;;;;;13.35;1.20;;;9.80;86.40;;;;;;5094733;28;20028;-77
2020/12/20 00:22:00;;;;;;;13.75;1.25;;;10.10;87.10;;;;;;5094421;28;20122;-76
2020/12/20 00:24:27;;;;;;;11.40;0.95;;;10.20;87.20;;;;;;5094242;28;20491;-77
2020/12/20 00:26:53;;;;;;;15.38;1.30;;;10.30;87.00;;;;;;5093346;28;20040;-77
2020/12/20 00:29:19;;;;;;;16.45;1.55;;;10.00;86.70;;;;;;5094592;28;20055;-76
2020/12/20 00:31:45;;;;;;;12.57;1.42;;;10.00;86.70;;;;;;5094055;28;20407;-76
2020/12/20 00:34:11;;;;;;;12.38;1.20;;;9.60;86.70;;;;;;5094286;28;20085;-77
2020/12/20 00:36:37;;;;;;;12.25;1.30;;;10.10;87.00;;;;;;5094537;28;20047;-76
2020/12/20 00:39:05;;;;;;;14.40;1.00;;;10.10;87.00;;;;;;5094601;28;20506;-76
2020/12/20 00:41:31;;;;;;;15.50;1.35;;;9.90;87.00;;;;;;5092558;28;20032;-77
2020/12/20 00:43:57;;;;;;;12.93;1.13;;;9.70;86.80;;;;;;5094173;28;20112;-77
2020/12/20 00:46:23;;;;;;;8.55;0.98;;;10.10;87.00;;;;;;5094218;28;20071;-76
2020/12/20 00:48:49;;;;;;;17.15;1.00;;;9.80;86.80;;;;;;5092627;28;20036;-77
2020/12/20 00:51:14;;;;;;;15.68;1.65;;;9.80;86.60;;;;;;5092434;28;20036;-76
2020/12/20 00:53:40;;;;;;;13.95;1.45;;;10.00;86.70;;;;;;5094397;28;20111;-76
2020/12/20 00:56:06;;;;;;;13.80;1.40;;;10.20;86.80;;;;;;5094119;28;20052;-77
2020/12/20 00:58:35;;;;;;;16.05;1.15;;;10.00;86.80;;;;;;5094000;28;20039;-77
2020/12/20 01:01:01;;;;;;;12.40;1.25;;;9.90;86.90;;;;;;5092996;28;20032;-77
2020/12/20 01:03:28;;;;;;;12.65;1.48;;;9.90;87.10;;;;;;5093771;28;20097;-77
2020/12/20 01:05:54;;;;;;;10.73;0.88;;;10.10;87.50;;;;;;5092529;28;20036;-77
2020/12/20 01:08:20;;;;;;;17.95;1.35;;;10.20;87.80;;;;;;5093955;28;20495;-77
2020/12/20 01:10:46;;;;;;;20.00;1.90;;;10.50;87.40;;;;;;5093665;28;20089;-77
2020/12/20 01:13:12;;;;;;;22.17;1.83;;;10.50;87.40;;;;;;5093488;28;20036;-77
2020/12/20 01:15:37;;;;;;;16.98;1.77;;;10.70;87.50;;;;;;5093782;28;20066;-77
2020/12/20 01:18:03;;;;;;;14.75;1.40;;;10.90;87.60;;;;;;5092217;28;20048;-77
2020/12/20 01:20:29;;;;;;;17.73;1.73;;;10.80;87.30;;;;;;5093567;28;20049;-77
2020/12/20 01:22:55;;;;;;;15.07;1.20;;;10.80;87.10;;;;;;5093519;28;20123;-77
2020/12/20 01:25:21;;;;;;;16.13;1.23;;;10.90;87.00;;;;;;5093625;28;20063;-77
2020/12/20 01:27:46;;;;;;;14.93;1.48;;;10.90;86.80;;;;;;5092322;28;20070;-77
2020/12/20 01:30:12;;;;;;;22.92;1.85;;;10.60;86.50;;;;;;5093605;28;20507;-77
2020/12/20 01:32:38;;;;;;;11.43;1.40;;;10.50;86.40;;;;;;5092144;28;20308;-77
2020/12/20 01:35:05;;;;;;;14.02;1.52;;;10.40;86.20;;;;;;5093679;28;20035;-77
2020/12/20 01:37:31;;;;;;;14.55;2.25;;;10.60;86.20;;;;;;5093714;28;20058;-77
2020/12/20 01:39:57;;;;;;;16.90;2.00;;;10.50;86.00;;;;;;5092395;28;20039;-77
2020/12/20 01:42:24;;;;;;;10.75;1.38;;;10.40;85.90;;;;;;5093339;28;20032;-77
2020/12/20 01:44:50;;;;;;;15.35;2.70;;;10.50;86.10;;;;;;5093588;28;20123;-76
2020/12/20 01:47:17;;;;;;;11.30;1.90;;;10.10;86.10;;;;;;5092880;28;20677;-76
2020/12/20 01:49:43;;;;;;;16.27;2.47;;;9.90;86.10;;;;;;5092112;28;20089;-76
2020/12/20 01:52:09;;;;;;;19.02;2.47;;;10.30;86.30;;;;;;5091969;28;20032;-76
2020/12/20 01:54:37;;;;;;;19.20;2.70;;;10.10;86.10;;;;;;5096016;28;20035;-76
2020/12/20 01:57:03;;;;;;;16.95;2.65;;;10.30;86.20;;;;;;5096889;28;20307;-76
2020/12/20 01:59:30;;;;;;;10.75;1.70;;;10.40;86.10;;;;;;5097201;28;20032;-76
2020/12/20 02:01:59;;;;;;;17.35;1.70;;;10.10;85.80;;;;;;5095610;28;20038;-76
2020/12/20 02:04:28;;;;;;;15.93;2.10;;;10.30;85.90;;;;;;5095755;28;20064;-76
2020/12/20 02:06:54;;;;;;;15.63;2.05;;;10.10;85.80;;;;;;5096417;28;20503;-76
2020/12/20 02:09:20;;;;;;;18.10;2.03;;;10.00;85.80;;;;;;5095369;28;20032;-76
2020/12/20 02:11:45;;;;;;;26.42;2.28;;;10.10;86.00;;;;;;5095301;28;20040;-76
2020/12/20 02:14:11;;;;;;;23.35;2.70;;;9.50;85.80;;;;;;5096890;28;20028;-76
2020/12/20 02:16:37;;;;;;;18.98;2.00;;;10.10;86.30;;;;;;5096886;28;20044;-76
2020/12/20 02:19:03;;;;;;;21.88;2.20;;;10.20;86.40;;;;;;5096669;28;20063;-76
2020/12/20 02:21:29;;;;;;;22.67;2.55;;;10.00;86.30;;;;;;5096367;28;20116;-76
2020/12/20 02:23:55;;;;;;;16.83;2.03;;;10.10;86.40;;;;;;5095425;28;20475;-76
2020/12/20 02:26:23;;;;;;;27.20;2.50;;;9.90;86.50;;;;;;5095116;28;20067;-76
2020/12/20 02:28:56;;;;;;;28.55;2.75;;;10.00;86.70;;;;;;5096291;28;20039;-76
2020/12/20 02:31:24;;;;;;;20.13;1.98;;;9.80;87.00;;;;;;5096739;28;20047;-76
2020/12/20 02:33:50;;;;;;;19.38;2.22;;;9.90;87.10;;;;;;5095164;28;20028;-76
2020/12/20 02:36:16;;;;;;;19.00;2.10;;;10.40;87.40;;;;;;5096159;28;20047;-76
2020/12/20 02:38:42;;;;;;;20.02;2.38;;;10.10;87.20;;;;;;5096435;28;20032;-76
2020/12/20 02:41:08;;;;;;;19.58;2.15;;;10.00;86.80;;;;;;5096061;28;20430;-76
2020/12/20 02:43:34;;;;;;;21.42;2.90;;;10.30;86.80;;;;;;5095788;28;20030;-76
2020/12/20 02:46:00;;;;;;;15.82;1.80;;;10.10;86.60;;;;;;5095080;28;20122;-76
2020/12/20 02:48:26;;;;;;;23.65;2.53;;;9.60;86.10;;;;;;5096385;28;20119;-77
2020/12/20 02:50:51;;;;;;;17.75;2.20;;;10.20;86.40;;;;;;5095089;28;20127;-76
2020/12/20 02:53:17;;;;;;;23.45;2.70;;;9.60;86.00;;;;;;5094679;28;20040;-77
2020/12/20 02:55:43;;;;;;;21.15;2.95;;;9.70;85.90;;;;;;5096179;28;20040;-76
2020/12/20 02:58:09;;;;;;;22.90;2.78;;;9.70;85.90;;;;;;5095917;28;20115;-77
2020/12/20 03:00:36;;;;;;;19.30;2.42;;;9.60;86.10;;;;;;5095824;28;20051;-76
2020/12/20 03:03:03;;;;;;;22.15;2.47;;;9.70;86.50;;;;;;5094763;28;20036;-76
2020/12/20 03:05:29;;;;;;;21.15;1.48;;;9.60;86.50;;;;;;5094473;28;20376;-77
2020/12/20 03:07:55;;;;;;;26.15;2.45;;;9.50;86.70;;;;;;5094726;28;20089;-76
2020/12/20 03:10:21;;;;;;;16.05;2.17;;;9.50;86.50;;;;;;5095812;28;20036;-76
2020/12/20 03:12:47;;;;;;;14.95;1.95;;;9.40;86.30;;;;;;5105041;22;20039;-77
2020/12/20 03:15:13;;;;;;;23.73;2.55;;;9.50;86.10;;;;;;5015900;28;20038;-76
2020/12/20 03:17:39;;;;;;;20.77;2.40;;;9.50;86.20;;;;;;5014997;28;20583;-76
2020/12/20 03:20:06;;;;;;;26.00;2.53;;;9.30;86.30;;;;;;4997235;28;20037;-77
2020/12/20 03:22:32;;;;;;;24.17;1.88;;;9.60;86.70;;;;;;4997620;28;20038;-76
2020/12/20 03:24:58;;;;;;;28.77;2.67;;;9.40;86.70;;;;;;4998121;28;20037;-76
2020/12/20 03:27:24;;;;;;;26.70;2.85;;;9.30;86.70;;;;;;5015207;28;20045;-76
2020/12/20 03:29:49;;;;;;;29.33;2.30;;;9.60;87.00;;;;;;5015623;28;20129;-76
2020/12/20 03:32:15;;;;;;;26.23;2.28;;;9.60;87.10;;;;;;4998164;28;20042;-76
2020/12/20 03:34:41;;;;;;;19.30;1.95;;;9.60;87.20;;;;;;5014880;28;20033;-76
2020/12/20 03:37:07;;;;;;;21.90;1.90;;;9.90;87.40;;;;;;4998174;28;20495;-76
2020/12/20 03:39:33;;;;;;;19.63;1.63;;;9.50;87.10;;;;;;5015402;28;20125;-76
2020/12/20 03:41:59;;;;;;;13.70;1.50;;;9.70;87.30;;;;;;5015537;28;20124;-76
2020/12/20 03:44:25;;;;;;;25.08;2.05;;;9.50;87.20;;;;;;5015434;28;20034;-76
2020/12/20 03:46:50;;;;;;;24.52;1.83;;;9.40;87.20;;;;;;5015363;28;20053;-75
2020/12/20 03:49:17;;;;;;;23.50;1.85;;;9.70;87.20;;;;;;5015329;28;20034;-75
2020/12/20 03:51:42;;;;;;;19.15;1.40;;;9.80;87.80;;;;;;5015314;28;20034;-75
2020/12/20 03:54:08;;;;;;;19.60;1.85;;;9.80;88.20;;;;;;5015410;28;20045;-75
2020/12/20 03:56:34;;;;;;;18.27;1.70;;;9.90;88.30;;;;;;5015172;28;20396;-76
2020/12/20 03:59:00;;;;;;;16.77;1.77;;;10.00;88.30;;;;;;5014506;28;20046;-75
2020/12/20 04:01:26;;;;;;;16.30;1.30;;;9.90;88.50;;;;;;5015464;28;20033;-75
2020/12/20 04:03:52;;;;;;;14.30;1.10;;;10.10;88.80;;;;;;5013790;28;20560;-75
2020/12/20 04:06:18;;;;;;;11.48;0.98;;;10.10;88.50;;;;;;5014610;28;20066;-75
2020/12/20 04:08:43;;;;;;;13.88;1.00;;;10.30;88.70;;;;;;5014965;28;20049;-75
2020/12/20 04:11:09;;;;;;;13.00;0.93;;;10.00;88.30;;;;;;5015165;28;20485;-75
2020/12/20 04:13:35;;;;;;;12.02;0.68;;;9.90;88.10;;;;;;5014484;28;20054;-75
2020/12/20 04:16:11;;;;;;;6.68;0.47;;;9.90;88.00;;;;;;5014476;28;20385;-76
2020/12/20 04:18:37;;;;;;;9.10;0.50;;;10.20;88.20;;;;;;5015016;28;20041;-75
2020/12/20 04:21:04;;;;;;;5.70;0.35;;;10.20;88.10;;;;;;4996949;28;20041;-75
2020/12/20 04:23:30;;;;;;;9.55;0.22;;;10.40;88.10;;;;;;5014801;28;20037;-75
2020/12/20 04:25:56;;;;;;;5.45;0.40;;;10.30;87.90;;;;;;5014413;28;20125;-75
2020/12/20 04:28:22;;;;;;;9.43;0.50;;;10.70;88.20;;;;;;5014706;28;20067;-75
2020/12/20 04:30:48;;;;;;;9.90;0.77;;;10.30;87.70;;;;;;5014820;28;20042;-75
2020/12/20 04:33:14;;;;;;;7.60;0.60;;;10.50;87.80;;;;;;5014728;28;20083;-75
2020/12/20 04:35:40;;;;;;;7.60;0.50;;;10.50;87.80;;;;;;4996473;28;20476;-75
2020/12/20 04:38:06;;;;;;;9.55;0.57;;;10.40;87.60;;;;;;5014497;28;20056;-75
2020/12/20 04:40:32;;;;;;;7.18;0.30;;;10.40;87.40;;;;;;4996834;28;20060;-75
2020/12/20 04:43:03;;;;;;;8.25;0.28;;;10.50;87.40;;;;;;4996864;28;20037;-74
2020/12/20 04:45:34;;;;;;;8.20;0.40;;;10.60;87.20;;;;;;5014172;28;20038;-75
2020/12/20 04:48:05;;;;;;;9.48;0.28;;;10.30;87.40;;;;;;4998877;28;20053;-75
2020/12/20 04:50:33;;;;;;;6.00;0.10;;;10.40;87.20;;;;;;5013642;28;20428;-75
2020/12/20 04:53:00;;;;;;;7.45;0.20;;;10.70;87.40;;;;;;5013044;28;20042;-75
2020/12/20 04:55:26;;;;;;;6.55;0.20;;;10.40;87.10;;;;;;5014523;28;20099;-76
2020/12/20 04:57:53;;;;;;;5.30;0.43;;;10.40;87.10;;;;;;5013702;28;20038;-75
2020/12/20 05:00:20;;;;;;;7.05;0.28;;;10.50;87.10;;;;;;5014127;28;20066;-76
2020/12/20 05:02:46;;;;;;;4.95;0.30;;;10.20;86.90;;;;;;5013708;28;20113;-76
2020/12/20 05:05:13;;;;;;;5.15;0.20;;;10.20;86.90;;;;;;5014286;28;20092;-75
2020/12/20 05:07:41;;;;;;;2.75;0.10;;;10.20;86.90;;;;;;5014515;28;20494;-75
2020/12/20 05:10:07;;;;;;;8.23;0.30;;;10.30;87.00;;;;;;5014197;28;20088;-75
2020/12/20 05:12:35;;;;;;;5.03;0.20;;;10.20;86.90;;;;;;5014161;28;20267;-76
2020/12/20 05:15:26;;;;;;;5.38;0.20;;;10.20;86.60;;;;;;4996207;28;20057;-75
2020/12/20 05:18:09;;;;;;;6.78;0.10;;;10.20;86.40;;;;;;5014097;28;20038;-75
2020/12/20 05:20:39;;;;;;;7.53;0.20;;;10.10;86.20;;;;;;5014262;28;20091;-75
2020/12/20 05:23:05;;;;;;;3.17;0.10;;;9.70;86.00;;;;;;4996190;28;20084;-75
2020/12/20 05:25:32;;;;;;;4.85;0.20;;;9.80;86.20;;;;;;4996679;28;20104;-75
2020/12/20 05:28:05;;;;;;;3.95;0.10;;;9.60;86.30;;;;;;4996754;28;20144;-75
2020/12/20 05:30:31;;;;;;;6.55;0.40;;;9.70;86.60;;;;;;5000472;28;20305;-76
2020/12/20 05:32:57;;;;;;;4.25;0.10;;;9.70;86.90;;;;;;5000514;28;20515;-75
2020/12/20 05:35:23;;;;;;;5.45;0.15;;;10.10;87.20;;;;;;5017652;28;20477;-75
2020/12/20 05:37:48;;;;;;;4.75;0.20;;;10.00;87.20;;;;;;5017925;28;20044;-75
2020/12/20 05:40:28;;;;;;;6.68;0.20;;;10.00;87.20;;;;;;4999881;28;20117;-75
2020/12/20 05:43:02;;;;;;;6.38;0.10;;;9.90;86.90;;;;;;5016533;28;20060;-75
2020/12/20 05:45:31;;;;;;;5.13;0.20;;;9.80;86.90;;;;;;5017775;28;20038;-75
2020/12/20 05:47:58;;;;;;;5.45;0.10;;;9.90;86.60;;;;;;5010458;28;20096;-75
2020/12/20 05:50:28;;;;;;;4.55;0.30;;;9.70;86.20;;;;;;4998978;28;20038;-75
2020/12/20 05:53:04;;;;;;;6.65;0.20;;;9.60;86.00;;;;;;4998053;28;20125;-75
2020/12/20 05:55:38;;;;;;;7.22;0.32;;;9.80;86.60;;;;;;4998011;28;20042;-75
2020/12/20 05:58:14;;;;;;;7.07;0.20;;;9.60;85.80;;;;;;4997782;28;20046;-75
2020/12/20 06:00:41;;;;;;;5.22;0.17;;;9.60;85.60;;;;;;4996843;28;20034;-75
2020/12/20 06:03:08;;;;;;;4.93;0.20;;;9.50;85.40;;;;;;4997412;28;20088;-75
2020/12/20 06:05:44;;;;;;;7.05;0.40;;;9.60;85.40;;;;;;4999716;28;20049;-75
2020/12/20 06:08:16;;;;;;;4.43;0.10;;;9.40;85.50;;;;;;4999856;28;20045;-75
2020/12/20 06:10:44;;;;;;;8.55;0.35;;;9.30;85.30;;;;;;4999424;28;20562;-75
2020/12/20 06:13:18;;;;;;;6.65;0.80;;;9.40;85.50;;;;;;5015815;28;20077;-75
2020/12/20 06:15:46;;;;;;;4.63;1.40;;;9.00;85.30;;;;;;5001064;28;20045;-75
2020/12/20 06:18:14;;;;;;;8.55;1.20;;;9.50;85.80;;;;;;5015518;28;20034;-75
2020/12/20 06:20:54;;;;;;;8.75;1.05;;;9.20;85.80;;;;;;4999081;28;20401;-75
2020/12/20 06:23:43;;;;;;;5.80;0.75;;;8.90;85.70;;;;;;5014806;28;20176;-75
2020/12/20 06:26:17;;;;;;;8.98;0.30;;;9.20;86.10;;;;;;5015408;28;20060;-75
2020/12/20 06:28:47;;;;;;;7.93;0.50;;;9.10;85.80;;;;;;5015699;28;20088;-75
2020/12/20 06:31:14;;;;;;;7.80;0.40;;;9.00;85.70;;;;;;5016581;28;20053;-74
2020/12/20 06:33:51;;;;;;;13.35;0.63;;;9.00;85.90;;;;;;5012001;28;20033;-75
2020/12/20 06:36:17;;;;;;;5.38;0.40;;;8.90;85.80;;;;;;5016643;28;20038;-74
2020/12/20 06:38:55;;;;;;;5.50;0.13;;;9.10;86.00;;;;;;5016123;28;20038;-75
2020/12/20 06:41:37;;;;;;;8.75;0.30;;;8.90;85.90;;;;;;5016372;28;20045;-75
2020/12/20 06:44:13;;;;;;;8.00;0.30;;;9.00;85.70;;;;;;5015502;28;20046;-75
2020/12/20 06:46:40;;;;;;;9.15;0.40;;;8.80;85.50;;;;;;5013980;28;20049;-75
2020/12/20 06:49:34;;;;;;;4.95;0.30;;;8.50;85.40;;;;;;5016386;28;20034;-75
2020/12/20 06:52:19;;;;;;;5.95;0.65;;;8.60;85.30;;;;;;4998882;28;20061;-75
2020/12/20 06:55:10;;;;;;;5.25;0.45;;;8.90;85.70;;;;;;5016339;28;20091;-75
2020/12/20 06:57:57;;;;;;;7.88;0.80;;;8.50;85.30;;;;;;5012883;28;20499;-75
2020/12/20 07:00:41;;;;;;;9.57;1.02;;;8.90;85.50;;;;;;5012807;28;20030;-75
2020/12/20 07:03:09;;;;;;;7.50;0.53;;;8.60;85.50;;;;;;4994828;28;20405;-75
2020/12/20 07:05:35;;;;;;;8.20;1.05;;;8.60;85.60;;;;;;4996294;28;20108;-75
2020/12/20 07:08:23;;;;;;;13.60;1.33;;;8.70;85.70;;;;;;4996211;28;20050;-75
2020/12/20 07:10:54;;;;;;;7.97;0.93;;;8.90;85.50;;;;;;4996351;28;20092;-75
2020/12/20 07:13:33;;;;;;;5.70;0.70;;;8.60;85.50;;;;;;4995933;28;20498;-75
2020/12/20 07:16:11;;;;;;;10.73;0.47;;;8.80;85.50;;;;;;4996394;28;20057;-75
2020/12/20 07:18:39;;;;;;;8.15;0.45;;;8.70;85.40;;;;;;4996645;28;20113;-74
2020/12/20 07:21:06;;;;;;;7.75;0.90;;;8.50;85.40;;;;;;4996016;28;20496;-75
2020/12/20 07:23:32;;;;;;;7.05;1.83;;;8.90;85.60;;;;;;4995972;28;20130;-75
2020/12/20 07:25:59;;;;;;;13.35;1.48;;;8.40;85.40;;;;;;4995795;28;20136;-75
2020/12/20 07:28:24;;;;;;;10.73;1.58;;;8.70;85.70;;;;;;4995419;28;20046;-74
2020/12/20 07:30:50;;;;;;;9.13;1.70;;;8.80;86.00;;;;;;4994730;28;20524;-75
2020/12/20 07:33:17;;;;;;;11.52;1.10;;;8.90;86.20;;;;;;4995626;28;20081;-74
2020/12/20 07:35:47;;;;;;;10.95;1.17;;;8.50;85.90;;;;;;4995446;28;20042;-75
2020/12/20 07:38:14;;;;;;;9.75;1.10;;;9.00;86.20;;;;;;4995932;28;20528;-75
2020/12/20 07:40:40;;;;;;;9.35;1.30;;;8.70;86.20;;;;;;4995545;28;20127;-75
2020/12/20 07:43:06;;;;;;;23.05;7.55;;;8.90;86.50;;;;;;4995320;28;20030;-74
2020/12/20 07:45:33;;;;;;;18.38;6.10;;;8.80;86.20;;;;;;4994517;28;20065;-75
2020/12/20 07:47:59;;;;;;;12.52;3.83;;;8.70;86.00;;;;;;4995402;28;20497;-75
2020/12/20 07:50:25;;;;;;;15.00;4.82;;;8.90;86.00;;;;;;4977528;28;20085;-74
2020/12/20 07:52:51;;;;;;;38.20;16.50;;;8.60;85.70;;;;;;4995519;28;20062;-77
2020/12/20 07:55:17;;;;;;;38.92;19.63;;;8.60;85.80;;;;;;4993207;28;20034;-76
2020/12/20 07:57:47;;;;;;;61.72;31.50;;;8.80;86.00;;;;;;4993202;28;20038;-77
2020/12/20 08:00:15;;;;;;;57.78;33.58;;;8.50;85.80;;;;;;4994506;28;20077;-74
2020/12/20 08:02:41;;;;;;;28.38;13.32;;;8.70;86.10;;;;;;4994468;28;20041;-76
2020/12/20 08:05:08;;;;;;;30.90;16.23;;;8.80;86.10;;;;;;4994083;28;20125;-75
2020/12/20 08:07:35;;;;;;;42.92;20.85;;;8.90;85.90;;;;;;4994272;28;20121;-76
2020/12/20 08:10:01;;;;;;;26.17;11.48;;;8.90;86.10;;;;;;4977153;28;20077;-76
2020/12/20 08:12:27;;;;;;;21.05;9.93;;;9.10;86.20;;;;;;4992897;28;20367;-75
2020/12/20 08:15:06;;;;;;;26.42;9.57;;;9.30;86.10;;;;;;4994442;28;20200;-74
2020/12/20 08:17:32;;;;;;;20.90;7.93;;;9.40;86.40;;;;;;4995407;28;20064;-73
2020/12/20 08:20:03;;;;;;;20.00;7.07;;;9.40;86.20;;;;;;4995137;28;20137;-74
2020/12/20 08:22:32;;;;;;;13.60;4.68;;;9.50;86.10;;;;;;4995305;28;20028;-73
2020/12/20 08:25:06;;;;;;;17.58;4.20;;;9.60;86.00;;;;;;4995264;28;20620;-73
2020/12/20 08:27:32;;;;;;;18.10;4.57;;;10.10;85.80;;;;;;4994838;28;20120;-74
2020/12/20 08:30:00;;;;;;;10.38;1.70;;;10.00;85.40;;;;;;4995366;28;20073;-75
2020/12/20 08:32:37;;;;;;;9.82;2.60;;;9.90;85.20;;;;;;4994761;28;20038;-75
2020/12/20 08:35:22;;;;;;;13.27;1.35;;;10.10;85.00;;;;;;4993577;28;20038;-77
2020/12/20 08:37:53;;;;;;;10.45;0.98;;;10.10;84.90;;;;;;4993918;28;20437;-75
2020/12/20 08:40:20;;;;;;;8.73;1.00;;;10.30;84.80;;;;;;4994679;28;20046;-75
2020/12/20 08:42:47;;;;;;;8.20;1.67;;;10.20;84.50;;;;;;4994632;28;20093;-74
2020/12/20 08:45:17;;;;;;;17.27;6.32;;;11.20;84.70;;;;;;4994754;28;20046;-74
2020/12/20 08:47:44;;;;;;;16.67;7.30;;;11.80;84.30;;;;;;4994819;28;20054;-74
2020/12/20 08:50:12;;;;;;;18.73;8.75;;;11.80;82.50;;;;;;4994855;28;20125;-74
2020/12/20 08:52:38;;;;;;;14.68;6.57;;;11.60;81.10;;;;;;5009060;28;20113;-75
2020/12/20 08:55:06;;;;;;;10.95;4.80;;;12.30;81.20;;;;;;5014071;28;20042;-74
2020/12/20 08:57:35;;;;;;;9.82;3.30;;;12.80;81.80;;;;;;5014065;28;20485;-75
2020/12/20 09:00:11;;;;;;;6.65;2.20;;;13.20;80.10;;;;;;5014461;28;20042;-76
2020/12/20 09:02:37;;;;;;;5.70;1.02;;;13.80;78.90;;;;;;5013782;28;20702;-74
2020/12/20 09:05:06;;;;;;;5.18;1.30;;;14.30;77.50;;;;;;5014098;28;20129;-75
2020/12/20 09:07:32;;;;;;;4.93;0.77;;;14.80;76.50;;;;;;5014101;28;20037;-76
2020/12/20 09:10:38;;;;;;;3.40;0.77;;;15.00;75.40;;;;;;5014281;28;20448;-76
2020/12/20 09:13:05;;;;;;;;;;;15.00;75.10;;;;;;5010174;28;20084;-75
2020/12/20 09:15:42;;;;;;;6.80;1.73;;;14.90;75.40;;;;;;5014300;28;19915;-74
2020/12/20 09:18:21;;;;;;;5.38;1.55;;;14.70;74.20;;;;;;5014101;28;20076;-74
2020/12/20 09:20:48;;;;;;;7.22;1.90;;;14.50;74.30;;;;;;5013522;28;20080;-75
2020/12/20 09:23:21;;;;;;;3.42;1.02;;;14.50;73.80;;;;;;5014411;28;20037;-75
2020/12/20 09:25:48;;;;;;;3.45;1.30;;;14.50;72.50;;;;;;5014115;28;20030;-75
2020/12/20 09:28:22;;;;;;;4.05;1.15;;;14.40;72.00;;;;;;5013904;28;20050;-75
2020/12/20 09:30:49;;;;;;;5.70;1.13;;;14.60;72.10;;;;;;5013665;28;20042;-76
2020/12/20 09:33:32;;;;;;;4.78;0.82;;;14.70;72.90;;;;;;5013998;28;20507;-75
2020/12/20 09:36:08;;;;;;;5.95;1.20;;;14.50;72.80;;;;;;5012845;28;20034;-76
2020/12/20 09:38:42;;;;;;;4.90;1.30;;;14.40;72.60;;;;;;5013655;28;20041;-76
2020/12/20 09:41:10;;;;;;;7.15;1.10;;;14.30;73.90;;;;;;5013925;28;20046;-75
2020/12/20 09:43:36;;;;;;;5.57;1.90;;;14.20;74.10;;;;;;5013865;28;20038;-75
2020/12/20 09:46:03;;;;;;;5.80;1.30;;;14.10;74.30;;;;;;5013457;28;20034;-76
2020/12/20 09:48:29;;;;;;;3.45;0.70;;;14.00;75.00;;;;;;5013401;28;20136;-75
2020/12/20 09:50:56;;;;;;;6.68;0.88;;;13.90;75.00;;;;;;5013372;28;20040;-76
2020/12/20 09:53:22;;;;;;;4.50;0.90;;;13.50;74.80;;;;;;5013144;28;20072;-76
2020/12/20 09:55:48;;;;;;;6.05;1.00;;;13.50;76.50;;;;;;5013946;28;20459;-76
2020/12/20 09:58:15;;;;;;;3.85;0.90;;;13.40;79.00;;;;;;5013274;28;20030;-75
2020/12/20 10:00:42;;;;;;;5.55;1.17;;;13.50;80.30;;;;;;5013646;28;20115;-74
2020/12/20 10:03:08;;;;;;;5.72;1.60;;;13.50;80.70;;;;;;5013752;28;20041;-74
2020/12/20 10:05:34;;;;;;;4.35;1.02;;;13.60;80.30;;;;;;5013762;28;20030;-75
2020/12/20 10:08:00;;;;;;;7.25;1.27;;;13.40;79.60;;;;;;5013731;28;20132;-73
2020/12/20 10:10:27;;;;;;;5.32;1.45;;;13.50;79.80;;;;;;5013784;28;20509;-74
2020/12/20 10:12:53;;;;;;;8.07;1.52;;;13.50;79.50;;;;;;5013494;28;20041;-73
2020/12/20 10:15:19;;;;;;;7.07;1.30;;;13.40;79.20;;;;;;5015762;28;20386;-74
2020/12/20 10:17:45;;;;;;;6.10;1.27;;;13.40;79.30;;;;;;5017292;28;20049;-75
2020/12/20 10:20:11;;;;;;;7.63;1.50;;;13.60;79.70;;;;;;5017118;28;20488;-74
2020/12/20 10:22:37;;;;;;;8.98;1.05;;;13.50;79.90;;;;;;5017146;28;20033;-75
2020/12/20 10:25:04;;;;;;;5.25;1.10;;;13.50;80.20;;;;;;5017329;28;20045;-75
2020/12/20 10:27:31;;;;;;;8.80;1.52;;;13.60;80.30;;;;;;5016540;28;20084;-73
2020/12/20 10:29:57;;;;;;;7.10;1.27;;;13.50;80.40;;;;;;5016652;28;20038;-74
2020/12/20 10:32:23;;;;;;;4.45;1.08;;;13.60;80.60;;;;;;5017123;28;20034;-74
2020/12/20 10:34:49;;;;;;;6.45;0.90;;;13.70;80.80;;;;;;5016676;28;20044;-74
2020/12/20 10:37:15;;;;;;;7.28;0.73;;;13.80;80.90;;;;;;5016940;28;20037;-74
2020/12/20 10:39:41;;;;;;;7.47;0.95;;;13.80;81.00;;;;;;5016587;28;20041;-72
2020/12/20 10:42:07;;;;;;;6.25;0.80;;;13.80;81.10;;;;;;5016764;28;20042;-74
2020/12/20 10:44:33;;;;;;;8.05;1.13;;;14.00;81.20;;;;;;5016683;28;20033;-73
2020/12/20 10:46:59;;;;;;;8.63;1.27;;;14.10;81.40;;;;;;5016644;28;20504;-74
2020/12/20 10:49:24;;;;;;;7.13;0.90;;;14.10;81.50;;;;;;5016362;28;20517;-74
2020/12/20 10:51:52;;;;;;;8.98;1.27;;;14.10;81.50;;;;;;5016176;28;20353;-74
2020/12/20 10:54:19;;;;;;;5.70;0.90;;;14.10;81.50;;;;;;5016437;28;20034;-74
2020/12/20 10:56:47;;;;;;;7.53;0.88;;;14.20;81.70;;;;;;5016318;28;20489;-75
2020/12/20 10:59:12;;;;;;;8.27;1.02;;;14.20;81.80;;;;;;5016313;28;20029;-75
2020/12/20 11:01:38;;;;;;;10.75;1.10;;;14.20;81.80;;;;;;5015864;28;20042;-74
2020/12/20 11:04:04;;;;;;;7.88;0.80;;;14.20;81.80;;;;;;5015660;28;20485;-76
2020/12/20 11:06:30;;;;;;;8.90;0.77;;;14.30;81.80;;;;;;5016109;28;20034;-74
2020/12/20 11:08:56;;;;;;;9.73;0.95;;;14.30;81.80;;;;;;5015058;28;20041;-74
2020/12/20 11:11:31;;;;;;;7.28;0.80;;;14.30;81.80;;;;;;5015830;28;20046;-73
2020/12/20 11:13:58;;;;;;;6.95;0.88;;;14.40;81.80;;;;;;5005723;28;20588;-76
2020/12/20 11:16:24;;;;;;;7.13;1.10;;;14.50;81.90;;;;;;4996111;28;20062;-73
2020/12/20 11:18:50;;;;;;;7.72;0.90;;;14.30;81.70;;;;;;4995941;28;20037;-74
2020/12/20 11:21:17;;;;;;;6.80;0.70;;;14.70;82.10;;;;;;4996160;28;20042;-74
2020/12/20 11:23:44;;;;;;;8.13;0.93;;;14.60;82.20;;;;;;4994912;28;20101;-73
2020/12/20 11:26:14;;;;;;;7.72;0.90;;;14.90;82.40;;;;;;5003338;28;20046;-73
2020/12/20 11:28:41;;;;;;;10.40;1.08;;;15.00;82.50;;;;;;5015205;28;20128;-73
2020/12/20 11:31:11;;;;;;;9.70;0.98;;;15.10;82.50;;;;;;5015547;28;20037;-74
2020/12/20 11:33:37;;;;;;;6.43;0.93;;;15.20;82.30;;;;;;5015426;28;20062;-74
2020/12/20 11:36:04;;;;;;;5.45;0.90;;;15.50;82.50;;;;;;5015091;28;20046;-74
2020/12/20 11:38:31;;;;;;;9.02;0.90;;;15.80;82.50;;;;;;5015257;28;20041;-74
2020/12/20 11:40:57;;;;;;;10.38;1.17;;;16.00;82.20;;;;;;5010560;28;20041;-74
2020/12/20 11:43:23;;;;;;;6.47;1.00;;;16.00;81.90;;;;;;5002042;28;20034;-75
2020/12/20 11:45:50;;;;;;;7.88;1.00;;;16.10;81.90;;;;;;4995715;28;20037;-73
2020/12/20 11:48:16;;;;;;;5.10;0.88;;;16.30;81.40;;;;;;4995708;28;20046;-74
2020/12/20 11:50:42;;;;;;;10.48;1.10;;;16.20;81.30;;;;;;4995859;28;20042;-74
2020/12/20 11:53:08;;;;;;;11.10;1.30;;;16.20;81.20;;;;;;4978539;28;20096;-75
2020/12/20 11:55:34;;;;;;;6.68;0.68;;;16.20;81.20;;;;;;4994325;28;20506;-74
2020/12/20 11:58:01;;;;;;;8.68;0.90;;;16.20;81.30;;;;;;4995058;28;20042;-74
2020/12/20 12:00:28;;;;;;;9.07;0.82;;;16.20;81.40;;;;;;4995558;28;20077;-74
2020/12/20 12:02:54;;;;;;;7.55;0.90;;;16.20;81.40;;;;;;4995155;28;20501;-75
2020/12/20 12:05:20;;;;;;;9.98;1.13;;;16.20;81.30;;;;;;4995330;28;20489;-73
2020/12/20 12:07:46;;;;;;;8.65;1.42;;;16.10;81.20;;;;;;4995251;28;20085;-74
2020/12/20 12:10:12;;;;;;;9.25;1.25;;;16.30;81.50;;;;;;4995088;28;20046;-75
2020/12/20 12:12:38;;;;;;;11.48;2.20;;;16.30;81.50;;;;;;4995101;28;20554;-75
2020/12/20 12:15:05;;;;;;;11.13;1.35;;;16.30;81.70;;;;;;4994009;28;20046;-76
2020/12/20 12:17:30;;;;;;;8.35;1.88;;;16.30;81.30;;;;;;4995350;28;20074;-74
2020/12/20 12:19:56;;;;;;;14.98;6.28;;;16.20;81.10;;;;;;4994831;28;20073;-75
2020/12/20 12:22:22;;;;;;;7.68;1.38;;;16.20;81.10;;;;;;4994007;28;20038;-74
2020/12/20 12:24:48;;;;;;;8.52;2.60;;;16.10;80.80;;;;;;5000328;28;20088;-75
2020/12/20 12:27:14;;;;;;;8.85;1.10;;;16.20;81.00;;;;;;5014183;28;20490;-74
2020/12/20 12:29:40;;;;;;;12.32;2.40;;;16.40;80.70;;;;;;5013788;28;20045;-74
2020/12/20 12:32:06;;;;;;;10.27;1.85;;;16.60;80.30;;;;;;5014042;28;20536;-73
2020/12/20 12:34:32;;;;;;;8.27;1.58;;;16.70;79.90;;;;;;5014378;28;20045;-72
2020/12/20 12:36:58;;;;;;;12.43;2.08;;;16.80;79.60;;;;;;5014032;28;20072;-73
2020/12/20 12:39:24;;;;;;;11.93;1.90;;;16.80;79.30;;;;;;5014395;28;20444;-74
2020/12/20 12:41:50;;;;;;;7.95;1.35;;;16.80;78.70;;;;;;5012538;28;20138;-73
2020/12/20 12:44:16;;;;;;;8.95;1.55;;;16.80;78.40;;;;;;5014226;28;20041;-73
2020/12/20 12:46:46;;;;;;;8.13;0.95;;;16.70;78.30;;;;;;5014218;28;20560;-72
2020/12/20 12:49:12;;;;;;;8.98;1.60;;;16.70;77.60;;;;;;5014054;28;20042;-74
2020/12/20 12:51:38;;;;;;;9.15;1.08;;;16.80;77.60;;;;;;5014172;28;20101;-73